createdAt,value
2023-07-24T00:00:40.808Z,6.30
2023-07-24T00:03:11.865Z,5.80
2023-07-24T00:05:42.892Z,6.80
2023-07-24T00:08:13.898Z,6.20
2023-07-24T00:10:44.916Z,6.20
2023-07-24T00:13:15.926Z,6.40
2023-07-24T00:15:47.133Z,5.30
2023-07-24T00:18:20.564Z,5.90
2023-07-24T00:20:51.517Z,5.40
2023-07-24T00:23:22.555Z,5.60
2023-07-24T00:25:54.370Z,6.20
2023-07-24T00:28:25.470Z,6.40
2023-07-24T00:30:58.379Z,5.60
2023-07-24T00:33:29.938Z,6.10
2023-07-24T00:36:01.203Z,5.40
2023-07-24T00:38:32.214Z,5.20
2023-07-24T00:41:03.318Z,6.20
2023-07-24T00:43:34.393Z,5.70
2023-07-24T00:46:06.825Z,5.70
2023-07-24T00:48:39.292Z,6.00
2023-07-24T00:51:12.818Z,5.30
2023-07-24T00:53:44.002Z,6.00
2023-07-24T00:56:15.680Z,5.90
2023-07-24T00:58:46.682Z,5.80
2023-07-24T01:01:20.492Z,5.60
2023-07-24T01:03:51.981Z,5.50
2023-07-24T01:06:23.005Z,5.40
2023-07-24T01:08:53.940Z,6.00
2023-07-24T01:11:30.059Z,5.20
2023-07-24T01:14:06.787Z,5.50
2023-07-24T01:16:42.594Z,5.70
2023-07-24T01:19:25.944Z,6.00
2023-07-24T01:22:23.215Z,4.80
2023-07-24T01:25:07.677Z,5.10
2023-07-24T01:27:42.591Z,5.10
2023-07-24T01:30:15.255Z,5.80
2023-07-24T01:32:46.394Z,5.30
2023-07-24T01:35:17.596Z,5.50
2023-07-24T01:40:50.307Z,5.10
2023-07-24T01:43:21.089Z,4.90
2023-07-24T01:45:51.886Z,5.20
2023-07-24T01:48:22.725Z,5.40
2023-07-24T01:50:53.528Z,5.60
2023-07-24T01:53:24.335Z,5.30
2023-07-24T01:55:55.210Z,4.80
2023-07-24T01:58:26.059Z,5.00
2023-07-24T02:00:58.638Z,4.90
2023-07-24T02:03:29.769Z,5.00
2023-07-24T02:06:00.643Z,4.40
2023-07-24T02:08:32.123Z,4.60
2023-07-24T02:11:02.860Z,4.70
2023-07-24T02:13:33.691Z,4.90
2023-07-24T02:16:04.887Z,4.30
2023-07-24T02:18:35.752Z,4.50
2023-07-24T02:21:06.479Z,4.60
2023-07-24T02:23:37.340Z,4.80
2023-07-24T02:26:09.365Z,4.60
2023-07-24T02:28:40.105Z,4.70
2023-07-24T02:31:10.858Z,4.90
2023-07-24T02:33:41.657Z,4.30
2023-07-24T02:36:12.695Z,4.20
2023-07-24T02:38:44.905Z,4.50
2023-07-24T02:41:15.711Z,4.60
2023-07-24T02:43:46.474Z,4.90
2023-07-24T02:46:17.395Z,4.90
2023-07-24T02:48:48.276Z,4.80
2023-07-24T02:51:19.120Z,4.50
2023-07-24T02:53:53.008Z,4.70
2023-07-24T02:56:24.269Z,4.30
2023-07-24T02:58:54.996Z,4.00
2023-07-24T03:01:25.858Z,4.60
2023-07-24T03:03:56.620Z,4.70
2023-07-24T03:06:27.888Z,5.20
2023-07-24T03:08:59.145Z,4.80
2023-07-24T03:11:29.895Z,4.30
2023-07-24T03:14:00.720Z,5.00
2023-07-24T03:16:31.827Z,5.70
2023-07-24T03:19:03.214Z,4.40
2023-07-24T03:21:34.332Z,4.50
2023-07-24T03:24:05.927Z,3.90
2023-07-24T03:26:39.622Z,5.00
2023-07-24T03:29:10.402Z,4.20
2023-07-24T03:31:41.296Z,4.00
2023-07-24T03:34:13.765Z,4.30
2023-07-24T03:36:44.610Z,4.70
2023-07-24T03:39:15.747Z,4.20
2023-07-24T03:41:46.673Z,4.40
2023-07-24T03:44:17.518Z,3.70
2023-07-24T03:46:48.334Z,4.00
2023-07-24T03:49:19.129Z,4.30
2023-07-24T03:51:49.946Z,4.60
2023-07-24T03:54:21.112Z,4.30
2023-07-24T03:56:51.869Z,4.00
2023-07-24T03:59:22.663Z,4.20
2023-07-24T04:01:53.542Z,4.30
2023-07-24T04:04:27.237Z,3.20
2023-07-24T04:07:00.643Z,3.80
2023-07-24T04:09:34.370Z,4.20
2023-07-24T04:12:07.495Z,4.10
2023-07-24T04:14:38.273Z,3.60
2023-07-24T04:17:09.843Z,3.70
2023-07-24T04:19:41.241Z,4.40
2023-07-24T04:22:13.250Z,3.40
2023-07-24T04:24:47.225Z,3.80
2023-07-24T04:27:17.985Z,3.60
2023-07-24T04:29:48.721Z,3.90
2023-07-24T04:32:21.374Z,3.70
2023-07-24T04:35:08.180Z,4.00
2023-07-24T04:37:40.879Z,4.00
2023-07-24T04:40:14.792Z,4.10
2023-07-24T04:42:45.787Z,3.80
2023-07-24T04:45:16.812Z,4.00
2023-07-24T04:47:47.710Z,3.70
2023-07-24T04:50:18.754Z,3.50
2023-07-24T04:52:52.959Z,3.60
2023-07-24T04:55:26.333Z,4.00
2023-07-24T04:57:58.959Z,4.10
2023-07-24T05:00:31.185Z,4.10
2023-07-24T05:03:02.011Z,3.80
2023-07-24T05:05:33.034Z,3.60
2023-07-24T05:08:04.172Z,4.00
2023-07-24T05:10:40.027Z,6.10
2023-07-24T05:13:13.907Z,3.70
2023-07-24T05:15:44.871Z,3.80
2023-07-24T05:18:15.674Z,4.10
2023-07-24T05:20:49.920Z,3.90
2023-07-24T05:23:22.537Z,3.60
2023-07-24T05:26:00.796Z,3.40
2023-07-24T05:28:32.644Z,3.50
2023-07-24T05:31:08.739Z,3.50
2023-07-24T05:33:39.797Z,3.70
2023-07-24T05:36:11.886Z,3.20
2023-07-24T05:38:42.693Z,3.50
2023-07-24T05:41:13.652Z,4.00
2023-07-24T05:43:44.502Z,4.20
2023-07-24T05:46:15.371Z,3.60
2023-07-24T05:48:46.621Z,3.50
2023-07-24T05:51:17.614Z,3.40
2023-07-24T05:53:51.618Z,4.00
2023-07-24T05:56:22.440Z,4.10
2023-07-24T05:58:53.286Z,3.90
2023-07-24T06:01:24.376Z,3.90
2023-07-24T06:03:55.391Z,3.50
2023-07-24T06:06:28.441Z,3.90
2023-07-24T06:08:59.604Z,3.20
2023-07-24T06:11:30.764Z,3.50
2023-07-24T06:14:01.665Z,3.30
2023-07-24T06:16:32.834Z,3.60
2023-07-24T06:19:04.195Z,3.80
2023-07-24T06:21:35.051Z,3.50
2023-07-24T06:24:13.436Z,3.40
2023-07-24T06:26:44.366Z,3.70
2023-07-24T06:29:15.924Z,3.80
2023-07-24T06:31:46.876Z,3.80
2023-07-24T06:34:20.135Z,4.40
2023-07-24T06:36:51.125Z,4.20
2023-07-24T06:39:21.995Z,3.50
2023-07-24T06:41:54.852Z,3.90
2023-07-24T06:44:25.954Z,3.60
2023-07-24T06:46:57.945Z,3.70
2023-07-24T06:49:28.827Z,3.70
2023-07-24T06:51:59.770Z,3.70
2023-07-24T06:54:30.825Z,3.40
2023-07-24T06:57:01.771Z,3.40
2023-07-24T06:59:38.932Z,3.60
2023-07-24T07:02:09.728Z,4.10
2023-07-24T07:04:40.588Z,3.80
2023-07-24T07:07:13.919Z,3.90
2023-07-24T07:09:44.901Z,3.50
2023-07-24T07:12:16.066Z,4.10
2023-07-24T07:14:49.160Z,4.20
2023-07-24T07:18:23.591Z,3.60
2023-07-24T07:20:55.825Z,3.90
2023-07-24T07:23:26.806Z,3.50
2023-07-24T07:25:57.844Z,4.00
2023-07-24T07:28:28.772Z,3.20
2023-07-24T07:30:59.628Z,3.30
2023-07-24T07:33:31.052Z,3.10
2023-07-24T07:36:04.342Z,3.10
2023-07-24T07:38:35.222Z,3.00
2023-07-24T07:41:09.604Z,3.30
2023-07-24T07:43:40.717Z,3.00
2023-07-24T07:46:12.372Z,3.40
2023-07-24T07:48:43.331Z,3.40
2023-07-24T07:52:54.862Z,3.30
2023-07-24T07:55:25.791Z,2.80
2023-07-24T07:57:57.913Z,3.20
2023-07-24T08:00:29.108Z,3.10
2023-07-24T08:03:00.148Z,3.50
2023-07-24T08:05:33.138Z,3.70
2023-07-24T08:08:05.399Z,4.10
2023-07-24T08:10:39.153Z,3.30
2023-07-24T08:13:10.213Z,3.10
2023-07-24T08:15:42.081Z,3.60
2023-07-24T08:18:13.016Z,3.80
2023-07-24T08:20:45.171Z,3.10
2023-07-24T08:23:16.178Z,3.10
2023-07-24T08:25:56.337Z,3.00
2023-07-24T08:28:27.350Z,3.30
2023-07-24T08:31:07.095Z,3.50
2023-07-24T08:33:38.778Z,3.40
2023-07-24T08:36:12.749Z,3.20
2023-07-24T08:38:44.626Z,3.30
2023-07-24T08:41:17.140Z,3.30
2023-07-24T08:43:48.102Z,3.50
2023-07-24T08:46:20.104Z,3.30
2023-07-24T08:48:50.905Z,3.00
2023-07-24T08:51:23.340Z,3.70
2023-07-24T08:53:55.045Z,3.30
2023-07-24T08:56:26.010Z,3.00
2023-07-24T08:58:57.611Z,3.30
2023-07-24T09:01:29.005Z,3.30
2023-07-24T09:03:59.935Z,3.10
2023-07-24T09:06:31.306Z,3.30
2023-07-24T09:09:04.206Z,3.30
2023-07-24T09:11:35.112Z,3.60
2023-07-24T09:14:19.990Z,3.30
2023-07-24T09:16:54.342Z,3.10
2023-07-24T09:19:27.633Z,3.80
2023-07-24T09:21:58.477Z,3.20
2023-07-24T09:24:29.628Z,3.20
2023-07-24T09:27:00.572Z,3.30
2023-07-24T09:29:37.596Z,3.30
2023-07-24T09:32:10.050Z,3.10
2023-07-24T09:34:45.572Z,3.00
2023-07-24T09:37:27.503Z,3.00
2023-07-24T09:40:00.081Z,3.00
2023-07-24T09:42:48.495Z,2.70
2023-07-24T09:45:29.500Z,2.90
2023-07-24T09:48:06.313Z,3.10
2023-07-24T09:50:39.710Z,3.10
2023-07-24T09:53:17.676Z,3.60
2023-07-24T09:55:53.938Z,2.70
2023-07-24T09:58:25.642Z,3.10
2023-07-24T10:00:57.186Z,2.70
2023-07-24T10:03:29.150Z,2.70
2023-07-24T10:06:01.914Z,2.70
2023-07-24T10:08:33.240Z,2.90
2023-07-24T10:11:04.911Z,3.00
2023-07-24T10:13:37.860Z,3.10
2023-07-24T10:16:09.180Z,2.30
2023-07-24T10:18:47.149Z,2.70
2023-07-24T10:21:18.760Z,2.70
2023-07-24T10:23:50.093Z,2.80
2023-07-24T10:26:29.250Z,3.10
2023-07-24T10:29:00.847Z,4.90
2023-07-24T10:31:32.102Z,4.40
2023-07-24T10:34:13.606Z,3.60
2023-07-24T10:36:44.450Z,3.20
2023-07-24T10:39:19.992Z,2.80
2023-07-24T10:41:50.840Z,3.10
2023-07-24T10:44:32.019Z,3.10
2023-07-24T10:47:03.997Z,3.50
2023-07-24T10:49:34.831Z,3.30
2023-07-24T10:52:06.352Z,4.30
2023-07-24T10:54:39.334Z,3.80
2023-07-24T10:57:11.605Z,4.00
2023-07-24T10:59:43.082Z,3.70
2023-07-24T11:02:14.341Z,3.20
2023-07-24T11:04:48.418Z,3.90
2023-07-24T11:10:22.040Z,3.90
2023-07-24T11:12:54.911Z,3.60
2023-07-24T11:15:37.010Z,3.60
2023-07-24T11:18:11.192Z,3.70
2023-07-24T11:20:47.502Z,3.70
2023-07-24T11:23:18.998Z,3.30
2023-07-24T11:25:52.291Z,3.50
2023-07-24T11:28:25.018Z,3.50
2023-07-24T11:31:04.334Z,3.40
2023-07-24T11:33:35.902Z,3.60
2023-07-24T11:36:07.320Z,3.50
2023-07-24T11:38:40.106Z,4.70
2023-07-24T11:41:12.094Z,4.00
2023-07-24T11:43:50.131Z,3.10
2023-07-24T11:46:29.416Z,4.20
2023-07-24T11:49:00.413Z,4.40
2023-07-24T11:51:34.801Z,3.80
2023-07-24T11:54:12.842Z,3.80
2023-07-24T11:56:43.880Z,3.60
2023-07-24T11:59:16.625Z,3.30
2023-07-24T12:01:51.074Z,3.30
2023-07-24T12:04:22.190Z,3.60
2023-07-24T12:06:53.974Z,3.20
2023-07-24T12:09:30.968Z,3.50
2023-07-24T12:12:05.700Z,3.30
2023-07-24T12:14:36.532Z,3.50
2023-07-24T12:17:11.235Z,3.60
2023-07-24T12:22:11.224Z,3.30
2023-07-24T12:24:42.178Z,3.80
2023-07-24T12:27:13.107Z,3.40
2023-07-24T12:29:43.931Z,3.80
2023-07-24T12:32:14.742Z,9.10
2023-07-24T12:34:46.316Z,4.00
2023-07-24T12:37:17.193Z,3.60
2023-07-24T12:39:48.897Z,4.00
2023-07-24T12:42:20.171Z,4.20
2023-07-24T12:44:51.171Z,4.00
2023-07-24T12:47:22.021Z,3.80
2023-07-24T12:49:53.758Z,3.70
2023-07-24T12:52:25.404Z,4.70
2023-07-24T12:55:02.126Z,3.80
2023-07-24T12:57:33.874Z,3.60
2023-07-24T13:00:09.135Z,4.50
2023-07-24T13:02:40.299Z,3.80
2023-07-24T13:05:11.696Z,3.20
2023-07-24T13:07:42.606Z,3.70
2023-07-24T13:10:14.126Z,3.90
2023-07-24T13:12:45.798Z,3.00
2023-07-24T13:15:16.703Z,3.70
2023-07-24T13:17:48.696Z,3.80
2023-07-24T13:20:19.552Z,3.80
2023-07-24T13:22:50.501Z,3.40
2023-07-24T13:25:21.849Z,3.60
2023-07-24T13:27:54.166Z,3.80
2023-07-24T13:30:25.365Z,3.70
2023-07-24T13:32:56.239Z,6.00
2023-07-24T13:35:27.336Z,4.70
2023-07-24T13:47:41.610Z,4.30
2023-07-24T13:50:13.201Z,4.00
2023-07-24T13:52:44.140Z,4.30
2023-07-24T13:55:15.310Z,4.00
2023-07-24T13:57:46.137Z,3.90
2023-07-24T14:00:18.667Z,3.70
2023-07-24T14:02:49.607Z,3.70
2023-07-24T14:05:20.881Z,3.50
2023-07-24T14:07:52.721Z,4.00
2023-07-24T14:10:23.743Z,4.10
2023-07-24T14:12:54.584Z,3.90
2023-07-24T14:15:25.835Z,3.50
2023-07-24T14:17:56.795Z,3.80
2023-07-24T14:20:27.816Z,3.60
2023-07-24T14:22:58.791Z,4.00
2023-07-24T14:25:29.982Z,3.50
2023-07-24T14:28:16.408Z,3.50
2023-07-24T14:30:51.441Z,3.90
2023-07-24T14:33:23.578Z,3.50
2023-07-24T14:35:56.050Z,3.60
2023-07-24T14:38:27.015Z,3.90
2023-07-24T14:40:57.966Z,3.80
2023-07-24T14:43:28.733Z,3.20
2023-07-24T14:46:00.458Z,3.60
2023-07-24T14:48:34.376Z,4.00
2023-07-24T14:51:05.725Z,4.20
2023-07-24T14:53:37.694Z,4.10
2023-07-24T14:56:08.831Z,3.40
2023-07-24T14:58:39.589Z,3.40
2023-07-24T15:01:10.365Z,4.30
2023-07-24T15:03:41.180Z,4.00
2023-07-24T15:06:11.964Z,4.30
2023-07-24T15:08:42.790Z,3.70
2023-07-24T15:11:14.510Z,4.20
2023-07-24T15:13:45.557Z,4.10
2023-07-24T15:16:16.417Z,4.60
2023-07-24T15:18:47.108Z,4.30
2023-07-24T15:21:17.862Z,4.30
2023-07-24T15:23:52.973Z,3.70
2023-07-24T15:26:23.835Z,4.70
2023-07-24T15:28:54.540Z,4.20
2023-07-24T15:31:25.398Z,3.90
2023-07-24T15:33:56.607Z,4.20
2023-07-24T15:36:27.383Z,4.30
2023-07-24T15:38:58.125Z,4.40
2023-07-24T15:41:29.164Z,4.50
2023-07-24T15:44:00.969Z,4.80
2023-07-24T15:46:33.089Z,4.90
2023-07-24T15:49:04.239Z,4.30
2023-07-24T15:51:36.911Z,4.70
2023-07-24T15:54:11.396Z,4.60
2023-07-24T15:56:43.272Z,4.60
2023-07-24T15:59:15.202Z,4.60
2023-07-24T16:01:46.000Z,4.50
2023-07-24T16:04:16.820Z,4.70
2023-07-24T16:06:47.707Z,4.70
2023-07-24T16:09:18.688Z,4.50
2023-07-24T16:11:49.504Z,5.30
2023-07-24T16:14:20.230Z,5.10
2023-07-24T16:16:51.420Z,4.10
2023-07-24T16:19:23.474Z,4.60
2023-07-24T16:21:57.149Z,4.90
2023-07-24T16:24:27.910Z,4.70
2023-07-24T16:26:58.816Z,4.70
2023-07-24T16:29:29.777Z,4.80
2023-07-24T16:32:00.700Z,4.60
2023-07-24T16:34:32.508Z,5.00
2023-07-24T16:37:03.402Z,4.50
2023-07-24T16:39:34.258Z,4.70
2023-07-24T16:42:05.068Z,4.50
2023-07-24T16:44:37.575Z,4.90
2023-07-24T16:47:12.499Z,5.40
2023-07-24T16:49:43.368Z,4.90
2023-07-24T16:52:14.117Z,4.10
2023-07-24T16:54:45.547Z,4.60
2023-07-24T16:57:16.315Z,4.10
2023-07-24T16:59:47.009Z,4.40
2023-07-24T17:02:17.717Z,4.50
2023-07-24T17:04:48.533Z,5.60
2023-07-24T17:07:19.362Z,5.40
2023-07-24T17:09:50.197Z,5.90
2023-07-24T17:12:20.947Z,5.00
2023-07-24T17:14:52.164Z,5.30
2023-07-24T17:17:23.162Z,5.30
2023-07-24T17:19:54.006Z,5.20
2023-07-24T17:22:24.814Z,5.10
2023-07-24T17:24:55.527Z,5.30
2023-07-24T17:27:26.740Z,5.20
2023-07-24T17:29:58.184Z,5.10
2023-07-24T17:32:29.092Z,5.00
2023-07-24T17:34:59.876Z,5.80
2023-07-24T17:40:10.122Z,6.50
2023-07-24T17:42:40.904Z,5.50
2023-07-24T17:45:13.982Z,6.40
2023-07-24T17:47:47.175Z,6.80
2023-07-24T17:50:18.217Z,10.80
2023-07-24T17:52:49.248Z,11.40
2023-07-24T17:55:20.068Z,7.20
2023-07-24T17:57:52.383Z,5.90
2023-07-24T18:00:23.769Z,6.30
2023-07-24T18:02:54.629Z,12.60
2023-07-24T18:05:26.140Z,7.20
2023-07-24T18:07:56.864Z,6.30
2023-07-24T18:10:27.700Z,6.80
2023-07-24T18:12:58.530Z,6.20
2023-07-24T18:15:29.264Z,7.20
2023-07-24T18:18:00.005Z,7.20
2023-07-24T18:20:32.028Z,6.40
2023-07-24T18:23:02.837Z,6.00
2023-07-24T18:25:33.577Z,5.70
2023-07-24T18:28:04.449Z,6.10
2023-07-24T18:30:35.310Z,8.50
2023-07-24T18:33:06.091Z,7.70
2023-07-24T18:35:36.988Z,8.80
2023-07-24T18:38:07.732Z,7.60
2023-07-24T18:40:38.471Z,13.40
2023-07-24T18:43:09.273Z,15.20
2023-07-24T18:45:40.077Z,9.40
2023-07-24T18:48:12.459Z,7.50
2023-07-24T18:50:44.657Z,7.40
2023-07-24T18:53:15.351Z,7.90
2023-07-24T18:55:46.257Z,7.10
2023-07-24T18:58:17.073Z,8.70
2023-07-24T19:00:48.615Z,8.70
2023-07-24T19:03:19.379Z,7.10
2023-07-24T19:05:51.227Z,7.40
2023-07-24T19:08:22.555Z,8.40
2023-07-24T19:10:53.544Z,7.80
2023-07-24T19:13:25.701Z,9.60
2023-07-24T19:15:57.386Z,8.10
2023-07-24T19:18:31.398Z,8.20
2023-07-24T19:21:03.956Z,7.40
2023-07-24T19:23:34.690Z,13.40
2023-07-24T19:26:06.815Z,11.70
2023-07-24T19:28:45.219Z,7.80
2023-07-24T19:31:16.105Z,7.30
2023-07-24T19:33:52.505Z,6.60
2023-07-24T19:36:25.772Z,6.70
2023-07-24T19:38:56.827Z,6.20
2023-07-24T19:41:27.827Z,8.90
2023-07-24T19:43:58.707Z,6.30
2023-07-24T19:46:29.643Z,7.00
2023-07-24T19:49:01.113Z,6.30
2023-07-24T19:51:32.198Z,6.00
2023-07-24T19:54:03.162Z,6.50
2023-07-24T19:56:35.168Z,6.10
2023-07-24T19:59:06.310Z,6.50
2023-07-24T20:01:38.630Z,5.60
2023-07-24T20:04:11.824Z,5.90
2023-07-24T20:06:42.966Z,6.10
2023-07-24T20:09:14.306Z,5.70
2023-07-24T20:11:49.078Z,5.60
2023-07-24T20:14:20.611Z,5.80
2023-07-24T20:16:51.504Z,5.80
2023-07-24T20:19:22.703Z,5.80
2023-07-24T20:21:53.590Z,6.10
2023-07-24T20:24:24.505Z,6.60
2023-07-24T20:26:55.304Z,6.50
2023-07-24T20:29:26.086Z,5.90
2023-07-24T20:31:56.969Z,5.70
2023-07-24T20:34:27.743Z,6.10
2023-07-24T20:36:58.448Z,6.10
2023-07-24T20:39:29.142Z,6.10
2023-07-24T20:42:00.095Z,6.30
2023-07-24T20:44:31.152Z,9.50
2023-07-24T20:47:02.054Z,6.20
2023-07-24T20:49:35.294Z,6.70
2023-07-24T20:52:07.005Z,6.50
2023-07-24T20:54:37.769Z,6.40
2023-07-24T20:57:09.480Z,6.40
2023-07-24T20:59:40.473Z,7.00
2023-07-24T21:02:11.514Z,7.00
2023-07-24T21:04:43.267Z,7.50
2023-07-24T21:07:14.173Z,6.60
2023-07-24T21:09:44.945Z,6.50
2023-07-24T21:12:16.002Z,7.70
2023-07-24T21:14:46.852Z,7.20
2023-07-24T21:17:17.690Z,7.20
2023-07-24T21:19:48.480Z,7.00
2023-07-24T21:22:19.292Z,6.70
2023-07-24T21:24:50.016Z,7.70
2023-07-24T21:27:20.839Z,6.50
2023-07-24T21:29:53.465Z,6.30
2023-07-24T21:32:24.256Z,6.20
2023-07-24T21:34:55.010Z,6.10
2023-07-24T21:37:25.863Z,6.80
2023-07-24T21:39:59.361Z,6.80
2023-07-24T21:42:30.082Z,5.90
2023-07-24T21:45:00.833Z,7.10
2023-07-24T21:47:31.726Z,7.30
2023-07-24T21:50:02.809Z,6.90
2023-07-24T21:52:33.593Z,7.00
2023-07-24T21:55:04.471Z,7.30
2023-07-24T21:57:35.231Z,7.50
2023-07-24T22:00:06.911Z,7.00
2023-07-24T22:02:43.307Z,6.70
2023-07-24T22:05:14.175Z,7.00
2023-07-24T22:07:44.938Z,6.80
2023-07-24T22:10:15.666Z,7.40
2023-07-24T22:12:46.505Z,7.10
2023-07-24T22:15:18.053Z,6.50
2023-07-24T22:17:49.027Z,7.00
2023-07-24T22:20:34.721Z,7.50
2023-07-24T22:23:11.046Z,7.60
2023-07-24T22:25:44.350Z,6.50
2023-07-24T22:28:15.148Z,7.20
2023-07-24T22:30:46.042Z,7.50
2023-07-24T22:33:17.040Z,6.60
2023-07-24T22:35:48.269Z,7.10
2023-07-24T22:38:19.026Z,7.10
2023-07-24T22:40:49.708Z,7.50
2023-07-24T22:43:20.519Z,7.30
2023-07-24T22:45:51.620Z,6.40
2023-07-24T22:48:22.614Z,7.30
2023-07-24T22:50:53.341Z,7.90
2023-07-24T22:53:24.064Z,7.10
2023-07-24T22:55:54.794Z,7.10
2023-07-24T22:58:25.836Z,7.30
2023-07-24T23:00:56.586Z,7.20
2023-07-24T23:03:27.471Z,7.20
2023-07-24T23:05:58.250Z,7.40
2023-07-24T23:08:29.060Z,7.70
2023-07-24T23:10:59.752Z,8.30
2023-07-24T23:13:30.558Z,7.50
2023-07-24T23:16:03.839Z,7.50
2023-07-24T23:18:34.986Z,8.20
2023-07-24T23:21:06.834Z,7.60
2023-07-24T23:23:37.639Z,8.00
2023-07-24T23:26:08.806Z,7.90
2023-07-24T23:28:39.529Z,8.10
2023-07-24T23:31:11.106Z,7.10
2023-07-24T23:33:42.247Z,7.90
2023-07-24T23:36:13.042Z,8.40
2023-07-24T23:38:43.851Z,7.80
2023-07-24T23:41:15.106Z,8.00
2023-07-24T23:43:45.803Z,8.80
2023-07-24T23:46:18.220Z,8.60
2023-07-24T23:48:49.043Z,8.40
2023-07-24T23:51:21.627Z,7.80
2023-07-24T23:53:53.102Z,7.90
2023-07-24T23:56:23.820Z,8.70
2023-07-24T23:58:54.627Z,8.70
